Time;durP1;ratioP1;P1;durP2;ratioP2;P2;SDS_P1;SDS_P2;PMS_P1;PMS_P2;Temp;Humidity;BMP_temperature;BMP_pressure;BME280_temperature;BME280_humidity;BME280_pressure;Samples;Min_cycle;Max_cycle;Signal;HPM_P1;HPM_P2
2022/12/15 00:39:36;;;;;;;;;11.25;10.00;;;;;20.83;34.24;100511.06;5052913;28;45419;-68
2022/12/15 00:42:01;;;;;;;;;14.25;10.75;;;;;20.82;34.31;100511.22;5052994;28;45419;-70
2022/12/15 00:44:26;;;;;;;;;9.00;7.75;;;;;20.83;33.92;100518.16;5052788;28;45580;-70
2022/12/15 00:46:54;;;;;;;;;12.75;9.50;;;;;20.82;34.05;100514.69;5052828;28;46115;-69
2022/12/15 01:22:24;;;;;;;;;11.75;11.00;;;;;20.78;34.05;100526.63;5052352;28;45251;-69
2022/12/15 01:24:49;;;;;;;;;10.00;9.00;;;;;20.78;33.73;100529.28;5052547;28;45409;-69
2022/12/15 01:27:14;;;;;;;;;14.50;10.50;;;;;20.78;33.77;100531.94;5052431;28;45264;-69
2022/12/15 01:29:40;;;;;;;;;11.25;10.50;;;;;20.78;33.94;100524.00;5051618;28;46283;-69
2022/12/15 01:32:05;;;;;;;;;12.75;9.50;;;;;20.73;33.68;100511.31;5052285;28;45393;-69
2022/12/15 01:34:30;;;;;;;;;11.25;9.00;;;;;20.78;34.11;100524.00;5052333;28;45396;-69
2022/12/15 01:36:56;;;;;;;;;11.25;11.00;;;;;20.78;33.75;100529.28;5052259;28;45344;-69
2022/12/15 01:39:21;;;;;;;;;9.25;8.25;;;;;20.79;33.87;100530.13;5052022;28;45430;-69
2022/12/15 01:41:46;;;;;;;;;13.00;11.50;;;;;20.79;33.84;100533.56;5052058;28;45288;-69
2022/12/15 01:44:15;;;;;;;;;10.00;9.00;;;;;20.78;33.73;100539.84;5051752;28;45320;-69
2022/12/15 01:46:40;;;;;;;;;11.00;10.50;;;;;20.79;33.70;100527.47;5052084;28;45403;-69
2022/12/15 01:49:19;;;;;;;;;8.00;8.00;;;;;20.79;33.89;100527.47;5051568;28;45397;-69
2022/12/15 01:51:51;;;;;;;;;12.00;9.75;;;;;20.77;33.82;100527.63;5051854;28;45426;-69
2022/12/15 01:54:24;;;;;;;;;14.50;10.25;;;;;20.77;33.66;100532.91;5045074;28;45814;-69
2022/12/15 01:56:53;;;;;;;;;7.50;6.50;;;;;20.78;33.59;100537.22;5031273;28;45506;-69
2022/12/15 01:59:25;;;;;;;;;10.75;10.00;;;;;20.77;33.65;100540.84;5031462;28;47173;-70
2022/12/15 02:01:51;;;;;;;;;15.75;12.75;;;;;20.74;33.69;100539.38;5048034;28;45275;-69
2022/12/15 02:04:21;;;;;;;;;11.50;9.25;;;;;20.78;33.84;100539.03;5035825;27;45416;-69
2022/12/15 02:06:47;;;;;;;;;10.25;9.75;;;;;20.76;34.01;100538.41;5055132;28;45355;-69
2022/12/15 02:09:13;;;;;;;;;14.75;10.75;;;;;20.76;33.81;100541.88;5054638;28;46126;-69
2022/12/15 02:12:15;;;;;;;;;9.00;8.75;;;;;20.75;33.79;100534.94;5054561;28;45361;-69
2022/12/15 02:15:02;;;;;;;;;8.25;8.25;;;;;20.74;33.98;100528.81;4953796;28;45440;-69
2022/12/15 02:18:02;;;;;;;;;10.75;10.50;;;;;20.75;33.97;100537.56;4953706;28;45439;-69
2022/12/15 02:20:43;;;;;;;;;12.00;9.50;;;;;20.75;33.81;100532.28;4895993;29;46199;-69
2022/12/15 02:23:29;;;;;;;;;10.00;8.50;;;;;20.73;33.87;100531.66;4896107;29;45440;-69
2022/12/15 02:26:28;;;;;;;;;11.00;10.75;;;;;20.71;33.67;100531.00;4895889;28;45445;-69
2022/12/15 02:29:17;;;;;;;;;11.00;10.00;;;;;20.72;33.68;100541.38;4896114;29;45446;-69
2022/12/15 02:31:54;;;;;;;;;10.25;9.00;;;;;20.71;34.07;100545.03;4895901;28;46097;-69
2022/12/15 02:34:46;;;;;;;;;11.00;9.00;;;;;20.72;33.61;100537.91;4895996;29;45391;-69
2022/12/15 02:37:26;;;;;;;;;9.75;8.75;;;;;20.69;33.62;100531.16;4896134;28;45425;-69
2022/12/15 02:39:51;;;;;;;;;11.75;10.75;;;;;20.71;33.69;100531.00;4895956;29;45521;-69
2022/12/15 02:42:17;;;;;;;;;11.25;8.75;;;;;20.71;33.72;100537.09;4895563;28;47272;-69
2022/12/15 02:44:52;;;;;;;;;12.50;10.25;;;;;20.70;33.83;100532.00;4895793;29;45433;-69
2022/12/15 02:47:32;;;;;;;;;10.75;10.00;;;;;20.70;33.48;100532.81;4896121;29;45536;-69
2022/12/15 02:49:57;;;;;;;;;8.25;8.00;;;;;20.70;33.72;100529.34;4895663;28;45204;-69
2022/12/15 02:52:34;;;;;;;;;9.00;9.00;;;;;20.70;33.72;100529.34;4962511;28;46187;-69
2022/12/15 02:55:05;;;;;;;;;15.00;11.00;;;;;20.69;33.52;100528.53;4960051;28;45614;-69
2022/12/15 02:57:53;;;;;;;;;12.50;11.00;;;;;20.69;33.88;100520.59;5001656;28;45361;-69
2022/12/15 03:00:19;;;;;;;;;12.00;11.00;;;;;20.69;33.65;100531.16;5021883;28;45531;-69
2022/12/15 03:02:49;;;;;;;;;11.00;9.50;;;;;20.56;33.38;100515.09;5053958;28;46103;-69
2022/12/15 03:05:16;;;;;;;;;9.75;9.25;;;;;20.70;33.73;100535.47;5054098;28;45372;-69
2022/12/15 03:07:41;;;;;;;;;8.50;8.25;;;;;20.70;33.60;100529.34;5054207;28;45242;-69
2022/12/15 03:10:09;;;;;;;;;13.25;11.75;;;;;20.69;33.42;100520.59;5053693;28;45469;-69
2022/12/15 03:12:34;;;;;;;;;11.00;9.50;;;;;20.61;33.52;100507.44;5054151;28;46141;-69
2022/12/15 03:15:00;;;;;;;;;10.75;9.50;;;;;20.69;33.42;100517.13;5052687;28;45372;-69
2022/12/15 03:17:25;;;;;;;;;11.00;11.00;;;;;20.69;33.48;100509.19;5054283;28;45305;-69
2022/12/15 03:19:51;;;;;;;;;9.00;6.75;;;;;20.70;33.38;100513.50;5054075;28;45451;-69
2022/12/15 03:22:16;;;;;;;;;10.50;10.00;;;;;20.70;33.37;100505.56;5053989;28;45321;-69
2022/12/15 03:24:42;;;;;;;;;10.00;9.50;;;;;20.67;33.32;100508.56;5053661;28;45376;-69
2022/12/15 03:27:07;;;;;;;;;6.50;5.50;;;;;20.70;33.38;100505.56;5054111;28;45476;-69
2022/12/15 03:29:32;;;;;;;;;12.00;9.50;;;;;20.65;33.72;100500.81;5053968;28;45330;-69
2022/12/15 03:31:58;;;;;;;;;11.00;9.75;;;;;20.69;33.58;100512.66;5053785;28;45237;-69
2022/12/15 03:34:23;;;;;;;;;10.00;9.00;;;;;20.69;33.38;100519.75;5053978;28;45319;-69
2022/12/15 03:36:48;;;;;;;;;9.00;9.00;;;;;20.68;33.39;100518.97;5054062;28;45222;-69
2022/12/15 03:39:14;;;;;;;;;11.00;9.75;;;;;20.68;33.81;100511.03;5053483;28;45356;-69
2022/12/15 03:41:40;;;;;;;;;7.75;7.75;;;;;20.68;33.41;100511.03;5053875;28;45997;-69
2022/12/15 03:44:05;;;;;;;;;10.75;9.75;;;;;20.67;33.42;100512.03;5053606;28;45300;-69
2022/12/15 03:46:31;;;;;;;;;9.75;9.25;;;;;20.67;33.53;100509.38;5053906;28;45350;-69
2022/12/15 03:48:57;;;;;;;;;9.75;9.75;;;;;20.68;33.58;100497.00;5053675;28;45362;-69
2022/12/15 03:51:22;;;;;;;;;9.75;9.50;;;;;20.68;33.51;100483.78;5053678;28;46095;-69
2022/12/15 03:53:48;;;;;;;;;12.50;11.50;;;;;20.69;33.41;100493.31;5050497;28;45441;-69
2022/12/15 03:56:14;;;;;;;;;13.50;10.00;;;;;20.67;33.38;100490.88;5033663;28;45422;-69
2022/12/15 03:58:40;;;;;;;;;13.00;10.25;;;;;20.67;33.33;100493.53;5033675;28;45310;-69
2022/12/15 04:01:21;;;;;;;;;10.25;9.00;;;;;20.59;33.67;100490.94;5043231;27;47090;-69
2022/12/15 04:03:47;;;;;;;;;10.25;9.25;;;;;20.67;33.66;100503.28;5053548;28;45423;-69
2022/12/15 04:06:12;;;;;;;;;13.25;9.50;;;;;20.66;33.67;100506.94;5053469;28;45454;-69
2022/12/15 04:08:37;;;;;;;;;9.00;9.00;;;;;20.65;33.39;100515.84;5053206;28;45313;-69
2022/12/15 04:11:03;;;;;;;;;12.50;11.50;;;;;20.62;33.56;100512.56;5052868;27;46393;-68
2022/12/15 04:13:28;;;;;;;;;15.75;8.00;;;;;20.66;33.43;100525.44;5053289;28;45429;-68
2022/12/15 04:15:53;;;;;;;;;9.75;8.50;;;;;20.65;33.36;100514.03;5053636;28;45490;-69
2022/12/15 04:18:19;;;;;;;;;8.00;8.00;;;;;20.60;33.41;100519.03;5053390;28;45332;-69
2022/12/15 04:20:44;;;;;;;;;9.00;9.00;;;;;20.63;33.43;100529.25;5053227;28;47027;-69
2022/12/15 04:23:10;;;;;;;;;10.50;9.25;;;;;20.65;33.55;100542.28;5052989;28;45351;-69
2022/12/15 05:31:50;;;;;;;;;11.75;9.00;;;;;20.60;33.29;100497.88;5052299;28;45448;-69
2022/12/15 05:34:17;;;;;;;;;10.50;9.25;;;;;20.59;33.07;100497.06;5051224;28;45246;-69
2022/12/15 05:36:42;;;;;;;;;8.50;8.25;;;;;20.60;33.38;100498.72;5052091;28;45379;-69
2022/12/15 05:39:08;;;;;;;;;12.75;8.75;;;;;20.54;33.41;100495.94;5053767;28;45282;-69
2022/12/15 05:41:33;;;;;;;;;10.50;8.50;;;;;20.59;33.44;100506.81;5055378;28;45363;-69
2022/12/15 05:43:58;;;;;;;;;8.75;8.50;;;;;20.58;33.33;100498.03;5055331;28;45400;-69
2022/12/15 05:46:24;;;;;;;;;9.00;8.00;;;;;20.59;33.59;100509.44;5055153;28;45313;-69
2022/12/15 05:48:49;;;;;;;;;11.00;9.75;;;;;20.24;33.64;100460.53;5054575;28;45321;-68
2022/12/15 05:51:14;;;;;;;;;9.50;7.75;;;;;20.60;33.53;100516.38;5055364;28;45356;-69
2022/12/15 05:53:40;;;;;;;;;9.00;9.00;;;;;20.59;33.77;100517.38;5053585;28;45291;-69
2022/12/15 05:56:09;;;;;;;;;10.75;9.00;;;;;20.62;33.59;100520.50;5034825;28;45987;-69
2022/12/15 05:58:34;;;;;;;;;9.75;8.25;;;;;20.62;33.46;100517.03;5034973;28;45400;-69
2022/12/15 06:01:12;;;;;;;;;8.00;8.00;;;;;20.62;33.31;100523.13;5044127;28;45402;-69
2022/12/15 06:03:38;;;;;;;;;9.50;8.00;;;;;20.62;33.60;100511.75;5054861;28;45292;-69
2022/12/15 06:06:05;;;;;;;;;9.75;8.75;;;;;20.65;33.31;100507.91;5054765;28;46339;-69
2022/12/15 06:08:33;;;;;;;;;10.25;9.00;;;;;20.64;33.66;100504.44;5054724;28;45380;-69
2022/12/15 06:10:58;;;;;;;;;11.50;10.50;;;;;20.65;33.59;100506.09;5036805;28;45443;-69
2022/12/15 06:13:24;;;;;;;;;11.25;9.25;;;;;20.66;33.43;100517.50;5054871;28;45478;-69
2022/12/15 06:15:57;;;;;;;;;11.25;9.50;;;;;20.67;33.34;100529.69;5054882;28;46169;-69
2022/12/15 06:18:24;;;;;;;;;9.25;8.75;;;;;20.67;33.42;100540.28;5054380;28;45252;-69
2022/12/15 06:20:56;;;;;;;;;11.50;9.00;;;;;20.65;33.58;100534.34;5054660;28;45245;-69
2022/12/15 06:23:21;;;;;;;;;8.00;8.00;;;;;20.68;33.66;100534.00;5054649;28;45424;-70
2022/12/15 06:25:46;;;;;;;;;10.75;8.00;;;;;20.68;33.35;100540.13;5054580;28;46814;-69
2022/12/15 06:28:12;;;;;;;;;9.25;8.00;;;;;20.64;33.64;100530.88;5054539;28;45431;-68
2022/12/15 06:30:37;;;;;;;;;7.75;7.75;;;;;20.69;33.77;100544.38;5054901;28;45530;-68
2022/12/15 06:33:03;;;;;;;;;7.00;7.00;;;;;20.71;33.75;100549.50;5054395;28;45303;-69
2022/12/15 06:35:28;;;;;;;;;6.75;6.00;;;;;20.63;33.36;100534.53;5054539;28;46166;-70
2022/12/15 06:37:53;;;;;;;;;9.75;7.00;;;;;20.64;33.32;100549.38;5054602;28;45380;-70
2022/12/15 06:40:19;;;;;;;;;9.25;9.25;;;;;20.72;33.48;100570.47;5054515;28;45359;-70
2022/12/15 06:42:44;;;;;;;;;8.00;7.00;;;;;20.73;33.78;100569.50;5054531;28;45427;-71
2022/12/15 06:45:09;;;;;;;;;9.00;7.50;;;;;20.76;33.77;100567.47;5054417;28;46017;-70
2022/12/15 06:47:35;;;;;;;;;8.00;8.00;;;;;20.67;33.89;100554.31;5054064;28;45420;-68
2022/12/15 06:50:00;;;;;;;;;8.25;7.50;;;;;20.77;34.37;100569.09;5054336;28;45353;-69
2022/12/15 06:52:26;;;;;;;;;7.75;6.00;;;;;20.79;34.15;100577.69;5028322;28;45304;-69
2022/12/15 06:54:51;;;;;;;;;10.00;8.25;;;;;20.80;34.17;100574.88;5032096;27;47257;-69
2022/12/15 06:57:16;;;;;;;;;8.75;7.50;;;;;20.80;34.32;100576.69;5016299;28;45314;-69
2022/12/15 06:59:42;;;;;;;;;10.00;9.00;;;;;20.82;34.39;100575.50;5016550;28;45662;-69
2022/12/15 07:02:17;;;;;;;;;4.00;3.00;;;;;20.79;34.96;100567.94;5052209;27;45401;-69
2022/12/15 07:04:43;;;;;;;;;7.00;7.00;;;;;20.86;34.41;100589.22;5053664;28;47306;-70
2022/12/15 07:07:11;;;;;;;;;8.75;8.75;;;;;20.87;34.31;100582.91;5054056;28;45355;-69
2022/12/15 07:09:36;;;;;;;;;6.75;6.75;;;;;20.77;34.70;100575.22;5054274;28;45470;-72
2022/12/15 07:12:02;;;;;;;;;10.00;7.25;;;;;20.88;34.63;100583.72;5054364;28;45383;-72
2022/12/15 07:14:27;;;;;;;;;8.00;7.00;;;;;20.88;34.43;100576.63;5053924;28;46163;-71
2022/12/15 07:16:53;;;;;;;;;6.75;6.75;;;;;20.89;34.80;100582.75;5053854;28;45365;-70
2022/12/15 07:19:18;;;;;;;;;5.75;5.75;;;;;20.88;34.64;100589.84;5054182;28;45528;-70
2022/12/15 07:21:44;;;;;;;;;10.00;8.50;;;;;20.88;34.79;100594.31;5054068;28;45377;-70
2022/12/15 07:24:12;;;;;;;;;7.50;7.25;;;;;20.80;35.07;100582.81;5035858;28;46140;-70
2022/12/15 07:26:39;;;;;;;;;5.50;5.00;;;;;20.85;34.61;100604.25;5054109;28;45423;-70
2022/12/15 07:29:04;;;;;;;;;9.25;7.25;;;;;20.88;34.66;100603.06;5053826;28;45350;-70
2022/12/15 07:31:30;;;;;;;;;8.50;6.75;;;;;20.89;34.59;100601.25;5053599;28;45356;-70
2022/12/15 07:33:57;;;;;;;;;7.75;7.75;;;;;20.89;34.74;100609.19;5035833;28;46312;-70
2022/12/15 07:36:23;;;;;;;;;6.50;6.50;;;;;20.89;34.75;100603.91;5053857;28;45213;-70
2022/12/15 07:38:49;;;;;;;;;9.25;8.25;;;;;20.89;34.78;100609.19;5053790;28;45209;-70
2022/12/15 07:41:14;;;;;;;;;7.00;5.75;;;;;20.88;34.87;100603.06;5053932;28;45223;-70
2022/12/15 07:43:40;;;;;;;;;8.50;7.50;;;;;20.88;34.76;100603.06;5035613;28;47064;-70
2022/12/15 07:46:05;;;;;;;;;7.25;6.75;;;;;20.89;34.85;100606.53;5053402;28;45296;-70
2022/12/15 07:48:31;;;;;;;;;6.00;6.00;;;;;20.88;34.70;100615.47;5053818;28;45208;-70
2022/12/15 07:50:58;;;;;;;;;9.50;8.00;;;;;20.82;34.40;100614.34;5053684;28;45301;-70
2022/12/15 07:53:26;;;;;;;;;12.75;8.00;;;;;20.81;34.71;100604.78;5053480;28;46188;-70
2022/12/15 07:55:59;;;;;;;;;11.00;7.00;;;;;20.85;34.83;100609.53;5033672;28;45441;-70
2022/12/15 07:58:26;;;;;;;;;7.75;7.75;;;;;20.86;34.45;100615.66;5033621;28;45369;-70
2022/12/15 08:00:52;;;;;;;;;8.75;7.50;;;;;20.85;34.26;100614.81;5022598;28;45304;-70
2022/12/15 08:03:18;;;;;;;;;13.75;9.25;;;;;20.86;34.68;100620.94;5053419;28;46030;-70
2022/12/15 08:05:44;;;;;;;;;13.25;8.25;;;;;20.84;34.41;100623.75;5053426;28;45348;-70
2022/12/15 08:08:10;;;;;;;;;13.50;8.25;;;;;20.74;34.24;100610.78;5053425;28;45330;-70
2022/12/15 08:10:39;;;;;;;;;7.50;7.00;;;;;20.85;34.37;100624.56;5053414;28;45341;-70
2022/12/15 08:13:04;;;;;;;;;10.00;8.00;;;;;20.83;34.36;100624.75;5053221;28;47096;-70
2022/12/15 08:15:30;;;;;;;;;8.50;8.50;;;;;20.83;34.28;100618.66;5052984;28;45341;-70
2022/12/15 08:17:55;;;;;;;;;7.75;7.00;;;;;20.83;34.31;100622.13;5053608;28;45392;-70
2022/12/15 08:20:21;;;;;;;;;11.50;10.00;;;;;20.83;34.32;100632.69;5053234;28;45352;-70
2022/12/15 08:22:46;;;;;;;;;8.50;6.25;;;;;20.82;34.59;100631.03;5053262;28;47172;-70
2022/12/15 08:25:11;;;;;;;;;3.50;3.50;;;;;20.78;34.31;100632.41;5053352;28;45431;-70
2022/12/15 08:27:37;;;;;;;;;6.50;6.25;;;;;20.83;34.66;100637.97;5035352;28;45418;-71
2022/12/15 08:30:02;;;;;;;;;8.25;8.00;;;;;20.83;34.58;100645.09;5052880;28;45487;-70
2022/12/15 08:32:28;;;;;;;;;10.00;6.25;;;;;20.83;34.47;100650.38;5053090;28;45471;-70
2022/12/15 08:34:53;;;;;;;;;11.75;9.00;;;;;20.69;34.24;100631.63;5053140;28;45419;-70
2022/12/15 08:37:18;;;;;;;;;10.50;9.00;;;;;20.83;34.35;100658.31;5053251;28;45379;-70
2022/12/15 08:39:44;;;;;;;;;7.00;7.00;;;;;20.82;34.29;100654.84;5053124;28;45438;-70
2022/12/15 08:42:09;;;;;;;;;7.50;6.75;;;;;20.82;34.39;100644.25;5052770;28;47305;-70
2022/12/15 08:44:34;;;;;;;;;6.50;6.25;;;;;20.83;34.09;100656.50;5052862;28;45675;-70
2022/12/15 08:47:00;;;;;;;;;8.50;7.25;;;;;20.82;34.38;100652.19;5053036;28;45372;-70
2022/12/15 08:49:25;;;;;;;;;11.50;8.25;;;;;20.72;34.21;100638.38;5052929;28;45594;-70
2022/12/15 08:51:50;;;;;;;;;8.50;7.00;;;;;20.82;34.39;100665.41;5052891;28;46357;-69
2022/12/15 08:54:16;;;;;;;;;9.00;8.75;;;;;20.83;34.46;100669.72;5046233;28;45413;-70
2022/12/15 08:56:42;;;;;;;;;8.50;7.25;;;;;20.81;34.65;100668.25;5032814;28;45313;-70
2022/12/15 08:59:08;;;;;;;;;7.75;7.00;;;;;20.68;34.27;100643.22;5032449;28;45587;-70
2022/12/15 09:01:38;;;;;;;;;9.00;7.50;;;;;20.82;34.73;100669.88;5046425;27;45408;-70
2022/12/15 09:04:03;;;;;;;;;8.50;8.00;;;;;20.78;34.35;100672.06;5052692;28;45326;-70
2022/12/15 09:06:32;;;;;;;;;8.50;7.50;;;;;20.83;34.47;100687.41;5052721;28;45388;-69
2022/12/15 09:09:00;;;;;;;;;9.00;8.00;;;;;20.82;34.60;100691.84;5052709;28;45534;-70
2022/12/15 09:11:27;;;;;;;;;9.00;8.50;;;;;20.83;34.47;100690.88;5052515;28;46002;-70
2022/12/15 09:13:53;;;;;;;;;8.00;6.00;;;;;20.81;34.27;100694.69;5053619;28;45332;-70
2022/12/15 09:16:19;;;;;;;;;9.25;7.75;;;;;20.81;34.37;100700.81;5055731;28;45372;-70
2022/12/15 09:18:47;;;;;;;;;9.00;9.00;;;;;20.81;34.29;100702.63;5055607;28;45275;-70
2022/12/15 09:21:13;;;;;;;;;7.00;6.50;;;;;20.72;34.63;100680.69;5055239;28;47077;-70
2022/12/15 09:23:39;;;;;;;;;8.00;8.00;;;;;20.75;34.61;100688.28;5055515;28;45426;-70
2022/12/15 09:26:07;;;;;;;;;8.00;7.00;;;;;20.79;34.28;100700.13;5055779;28;45414;-70
2022/12/15 09:28:33;;;;;;;;;10.25;9.75;;;;;20.77;34.66;100688.09;5054993;28;45234;-70
2022/12/15 09:31:03;;;;;;;;;7.00;7.00;;;;;20.72;34.73;100681.50;5055250;28;45359;-70
2022/12/15 09:33:28;;;;;;;;;10.00;8.50;;;;;20.73;34.61;100683.16;5055229;28;45429;-69
2022/12/15 09:35:53;;;;;;;;;8.25;8.25;;;;;20.78;34.37;100692.38;5055457;28;45392;-70
2022/12/15 09:38:19;;;;;;;;;9.00;6.00;;;;;20.77;34.57;100693.38;5055367;28;45316;-70
2022/12/15 09:40:44;;;;;;;;;9.00;7.00;;;;;20.72;34.29;100700.03;5055261;28;46293;-70
2022/12/15 09:43:16;;;;;;;;;7.75;6.25;;;;;20.75;34.75;100709.44;5054938;28;45396;-70
2022/12/15 09:45:49;;;;;;;;;9.25;8.50;;;;;20.76;34.63;100707.59;5055223;28;45404;-70
2022/12/15 09:48:34;;;;;;;;;5.50;5.25;;;;;20.76;34.33;100710.25;5055026;28;45299;-70
2022/12/15 09:51:03;;;;;;;;;7.50;7.00;;;;;20.76;34.38;100707.59;5055023;28;46109;-70
2022/12/15 09:53:28;;;;;;;;;6.00;6.00;;;;;20.76;34.67;100704.97;5054914;28;45345;-69
2022/12/15 09:56:02;;;;;;;;;5.50;5.25;;;;;20.76;34.47;100710.25;5034727;28;45449;-70
2022/12/15 09:58:37;;;;;;;;;5.50;5.50;;;;;20.76;34.69;100710.25;5017116;28;45378;-70
2022/12/15 10:01:24;;;;;;;;;8.50;7.50;;;;;20.74;34.75;100715.69;5044335;28;45541;-70
2022/12/15 10:04:08;;;;;;;;;7.25;7.00;;;;;20.72;34.02;100712.41;5054959;28;45436;-70
2022/12/15 10:06:56;;;;;;;;;8.00;8.00;;;;;20.60;34.68;100688.19;5055098;28;45343;-70
2022/12/15 10:09:28;;;;;;;;;8.50;7.25;;;;;20.73;34.65;100716.72;5054763;28;45458;-70
2022/12/15 10:11:59;;;;;;;;;7.00;7.00;;;;;20.71;35.01;100713.44;5054439;28;47040;-70
2022/12/15 10:14:40;;;;;;;;;6.00;5.25;;;;;20.72;34.52;100720.34;5054884;28;45422;-70
2022/12/15 10:17:16;;;;;;;;;7.25;6.00;;;;;20.72;34.17;100709.78;5054914;28;45348;-70
2022/12/15 10:19:57;;;;;;;;;6.50;5.75;;;;;20.73;34.49;100711.44;5054790;28;45417;-70
2022/12/15 10:22:30;;;;;;;;;9.00;8.50;;;;;20.71;34.30;100708.94;5054713;28;47297;-70
2022/12/15 10:24:58;;;;;;;;;7.75;6.50;;;;;20.67;34.17;100707.66;5053929;28;45346;-70
2022/12/15 10:27:47;;;;;;;;;7.75;6.25;;;;;20.72;34.14;100713.25;5054773;28;45402;-70
2022/12/15 10:30:13;;;;;;;;;9.00;5.75;;;;;20.72;33.92;100715.88;5054664;28;45389;-70
2022/12/15 10:32:50;;;;;;;;;7.25;5.75;;;;;20.71;34.36;100703.66;5054440;28;47184;-70
2022/12/15 10:35:16;;;;;;;;;9.25;6.25;;;;;20.66;33.90;100692.78;5054564;28;45318;-70
2022/12/15 10:37:42;;;;;;;;;6.50;5.50;;;;;20.72;34.14;100694.72;5054590;28;45444;-70
2022/12/15 10:40:08;;;;;;;;;8.75;7.00;;;;;20.72;33.92;100705.31;5054159;28;45428;-70
2022/12/15 10:42:48;;;;;;;;;7.25;7.00;;;;;20.59;34.21;100686.53;5054551;28;46388;-70
2022/12/15 10:45:36;;;;;;;;;7.25;7.25;;;;;20.73;34.25;100696.38;5054546;28;45354;-70
2022/12/15 10:48:02;;;;;;;;;7.50;6.00;;;;;20.73;34.02;100690.28;5054681;28;45347;-70
2022/12/15 10:50:28;;;;;;;;;7.00;5.50;;;;;20.72;33.94;100678.03;5054428;28;45419;-70
2022/12/15 10:52:53;;;;;;;;;8.50;6.50;;;;;20.72;34.09;100662.19;5054269;28;46331;-70
2022/12/15 10:55:40;;;;;;;;;7.00;4.75;;;;;20.72;33.98;100663.00;5038809;28;45391;-70
2022/12/15 10:58:19;;;;;;;;;4.00;4.00;;;;;20.72;34.10;100657.72;5034433;28;45329;-70
2022/12/15 11:00:45;;;;;;;;;7.00;6.00;;;;;20.71;34.30;100658.72;5041318;28;45382;-70
2022/12/15 11:03:25;;;;;;;;;6.00;6.00;;;;;20.66;33.97;100655.75;5054127;28;46876;-70
2022/12/15 11:05:55;;;;;;;;;7.00;7.00;;;;;20.62;33.96;100639.44;5054380;28;45368;-70
2022/12/15 11:08:22;;;;;;;;;6.75;5.00;;;;;20.70;34.00;100641.22;5053851;28;45336;-70
2022/12/15 11:13:35;;;;;;;;;6.00;6.00;;;;;20.70;34.15;100640.38;5054137;28;45414;-70
2022/12/15 11:16:18;;;;;;;;;6.50;6.00;;;;;20.70;34.07;100645.69;5054165;28;45407;-70
2022/12/15 11:18:47;;;;;;;;;8.50;5.50;;;;;20.69;34.28;100642.19;5054208;28;45376;-70
2022/12/15 11:21:23;;;;;;;;;6.25;5.25;;;;;20.70;34.19;100640.38;5054076;28;45469;-70
2022/12/15 11:23:54;;;;;;;;;6.75;5.00;;;;;20.69;34.40;100631.63;5053507;28;46383;-70
2022/12/15 11:26:34;;;;;;;;;6.00;6.00;;;;;20.69;34.04;100636.91;5053832;28;45379;-69
2022/12/15 11:29:25;;;;;;;;;7.00;5.00;;;;;20.69;34.12;100628.16;5053963;28;45375;-70
2022/12/15 11:31:53;;;;;;;;;4.75;4.00;;;;;20.67;34.05;100623.06;5053407;28;45375;-70
2022/12/15 11:34:41;;;;;;;;;4.75;4.75;;;;;20.67;34.39;100603.72;5053661;28;46390;-70
2022/12/15 11:37:12;;;;;;;;;5.75;3.75;;;;;20.55;34.30;100585.66;5052180;28;45279;-70
2022/12/15 11:39:59;;;;;;;;;8.25;6.50;;;;;20.68;34.29;100615.94;5035831;28;45477;-70
2022/12/15 11:42:43;;;;;;;;;4.00;4.00;;;;;20.66;34.16;100604.75;5053909;28;45414;-70
2022/12/15 11:45:23;;;;;;;;;6.25;6.25;;;;;20.58;34.22;100603.78;5053665;28;46255;-70
2022/12/15 11:47:56;;;;;;;;;5.00;5.00;;;;;20.65;34.09;100619.78;5053652;28;45316;-70
2022/12/15 11:50:31;;;;;;;;;6.00;4.00;;;;;20.66;34.17;100623.25;5053701;28;45418;-70
2022/12/15 11:53:14;;;;;;;;;7.00;7.00;;;;;20.66;34.46;100615.31;5053400;28;45221;-70
2022/12/15 11:55:48;;;;;;;;;5.25;5.25;;;;;20.65;34.21;100618.94;5035308;28;46063;-70
2022/12/15 11:58:22;;;;;;;;;7.25;5.75;;;;;20.64;34.11;100623.41;5033326;28;45389;-71
2022/12/15 12:01:12;;;;;;;;;4.25;4.25;;;;;20.65;34.25;100624.22;5041217;27;45308;-70
2022/12/15 12:04:05;;;;;;;;;7.50;6.25;;;;;20.64;34.43;100612.81;5055005;27;45567;-70
2022/12/15 12:06:37;;;;;;;;;7.00;5.00;;;;;20.64;34.24;100626.03;5034944;28;48661;-70
2022/12/15 12:09:40;;;;;;;;;8.75;7.00;;;;;20.65;34.25;100618.94;5054842;27;45481;-69
2022/12/15 12:12:12;;;;;;;;;5.25;5.25;;;;;20.65;33.96;100625.06;4952184;28;45428;-70
2022/12/15 12:14:54;;;;;;;;;7.50;5.00;;;;;20.63;34.06;100611.19;4952539;28;45518;-70
2022/12/15 12:17:42;;;;;;;;;6.25;5.75;;;;;20.64;33.99;100607.53;4952143;28;46174;-70
2022/12/15 12:20:20;;;;;;;;;6.75;5.25;;;;;20.64;34.09;100599.59;4952184;28;45520;-70
2022/12/15 12:23:01;;;;;;;;;5.25;4.50;;;;;20.65;33.88;100605.72;4952213;28;45516;-70
2022/12/15 12:25:29;;;;;;;;;6.00;6.00;;;;;20.65;33.75;100600.44;4952435;28;45367;-70
2022/12/15 12:28:02;;;;;;;;;4.50;4.50;;;;;20.66;33.79;100607.38;4952079;28;45411;-70
2022/12/15 12:30:38;;;;;;;;;6.00;5.00;;;;;20.65;34.05;100601.28;4951923;28;45429;-70
2022/12/15 12:33:32;;;;;;;;;4.00;4.00;;;;;20.65;33.70;100593.34;4952065;28;45373;-70
2022/12/15 12:36:10;;;;;;;;;5.00;5.00;;;;;20.65;33.82;100595.97;4955192;28;45374;-70
2022/12/15 12:38:49;;;;;;;;;5.25;3.25;;;;;20.66;33.74;100583.59;4951854;28;46361;-70
2022/12/15 12:41:39;;;;;;;;;4.00;4.00;;;;;20.66;33.93;100578.31;4951911;28;45372;-70
2022/12/15 12:44:20;;;;;;;;;6.00;5.00;;;;;20.67;34.12;100588.69;5052624;28;45346;-71
2022/12/15 12:46:50;;;;;;;;;8.50;6.00;;;;;20.65;33.87;100580.13;5052747;28;45454;-70
2022/12/15 12:49:19;;;;;;;;;6.00;5.00;;;;;20.66;34.18;100583.59;5052277;28;46439;-71
2022/12/15 12:51:51;;;;;;;;;5.75;5.00;;;;;20.67;34.11;100579.94;5052868;28;45335;-70
2022/12/15 12:54:55;;;;;;;;;5.00;5.00;;;;;20.65;34.17;100576.66;5046387;28;45381;-69
2022/12/15 12:57:38;;;;;;;;;5.50;4.00;;;;;20.65;33.87;100577.47;5073571;28;45427;-70
2022/12/15 13:00:06;;;;;;;;;5.00;5.00;;;;;20.65;33.88;100566.06;5074909;27;45383;-70
2022/12/15 13:02:36;;;;;;;;;7.25;5.75;;;;;20.63;34.08;100567.06;5093908;27;45470;-70
2022/12/15 13:05:20;;;;;;;;;5.00;4.00;;;;;20.65;34.29;100558.16;5093677;27;45526;-71
2022/12/15 13:08:03;;;;;;;;;5.00;3.25;;;;;20.65;34.07;100555.50;5094121;27;45473;-71
2022/12/15 13:10:30;;;;;;;;;5.25;4.50;;;;;20.62;34.14;100557.50;5093656;27;47079;-69
2022/12/15 13:12:58;;;;;;;;;5.00;5.00;;;;;20.57;34.50;100543.16;5093857;27;45408;-70
2022/12/15 13:15:26;;;;;;;;;4.50;4.50;;;;;20.62;34.13;100552.22;5093956;27;45468;-70
2022/12/15 13:17:56;;;;;;;;;9.25;7.00;;;;;20.62;34.21;100546.94;5093994;27;45479;-70
2022/12/15 13:20:24;;;;;;;;;6.25;5.25;;;;;20.62;34.08;100546.94;5093377;27;45371;-70
2022/12/15 13:22:51;;;;;;;;;4.00;4.00;;;;;20.60;34.01;100556.88;5093610;27;45401;-70
2022/12/15 13:25:36;;;;;;;;;5.25;5.25;;;;;20.61;34.09;100555.84;5093752;27;45369;-70
2022/12/15 13:28:38;;;;;;;;;6.25;6.25;;;;;20.60;34.19;100548.94;5093661;27;45481;-70
2022/12/15 13:31:16;;;;;;;;;5.00;4.25;;;;;20.60;34.24;100541.00;5032609;28;46264;-70
2022/12/15 13:33:50;;;;;;;;;5.75;4.00;;;;;20.60;34.09;100545.47;4966414;28;45554;-70
2022/12/15 13:36:45;;;;;;;;;3.50;3.50;;;;;20.60;34.30;100535.72;4970723;28;45377;-70
2022/12/15 13:39:11;;;;;;;;;4.00;4.00;;;;;20.59;34.63;100525.31;4983095;28;45490;-70
2022/12/15 13:41:37;;;;;;;;;4.00;4.00;;;;;20.58;34.20;100532.41;4970299;28;46212;-70
2022/12/15 13:44:14;;;;;;;;;4.25;4.25;;;;;20.58;34.06;100544.81;4970603;28;45395;-71
2022/12/15 13:46:45;;;;;;;;;6.50;4.50;;;;;20.58;34.10;100524.47;4970465;28;45441;-69
2022/12/15 13:49:21;;;;;;;;;8.25;4.50;;;;;20.56;34.31;100523.84;4969961;28;45498;-70
2022/12/15 13:51:47;;;;;;;;;4.25;4.00;;;;;20.57;34.17;100522.03;4970200;28;48617;-69
2022/12/15 13:54:20;;;;;;;;;3.25;3.25;;;;;20.57;34.21;100528.13;4964316;28;45434;-69
2022/12/15 13:57:08;;;;;;;;;6.25;4.00;;;;;20.57;33.98;100536.06;4950958;28;45489;-71
2022/12/15 14:00:04;;;;;;;;;4.00;4.00;;;;;20.57;34.06;100529.97;4951996;28;45377;-70